createdAt,value
2022-12-31T00:00:04.752Z,997.94
2022-12-31T00:01:05.546Z,997.95
2022-12-31T00:02:05.126Z,997.98
2022-12-31T00:03:05.180Z,998.02
2022-12-31T00:04:05.213Z,998.03
2022-12-31T00:05:05.346Z,998.08
2022-12-31T00:06:05.480Z,998.05
2022-12-31T00:07:05.677Z,998.05
2022-12-31T00:08:05.710Z,998.05
2022-12-31T00:09:05.839Z,998.07
2022-12-31T00:10:06.001Z,998.03
2022-12-31T00:11:06.145Z,997.99
2022-12-31T00:12:06.366Z,997.96
2022-12-31T00:13:06.388Z,998.00
2022-12-31T00:14:06.577Z,997.91
2022-12-31T00:15:06.665Z,997.98
2022-12-31T00:16:11.791Z,997.95
2022-12-31T00:17:07.958Z,997.91
2022-12-31T00:18:07.051Z,997.99
2022-12-31T00:19:07.204Z,997.98
2022-12-31T00:20:07.316Z,997.93
2022-12-31T00:21:07.453Z,997.91
2022-12-31T00:22:07.629Z,997.98
2022-12-31T00:23:07.643Z,997.95
2022-12-31T00:24:07.755Z,997.92
2022-12-31T00:25:07.852Z,997.95
2022-12-31T00:26:08.031Z,998.04
2022-12-31T00:27:08.110Z,997.95
2022-12-31T00:28:08.250Z,997.96
2022-12-31T00:29:08.341Z,997.85
2022-12-31T00:30:08.474Z,997.87
2022-12-31T00:31:08.717Z,997.91
2022-12-31T00:32:08.811Z,997.79
2022-12-31T00:33:08.903Z,997.90
2022-12-31T00:34:09.057Z,997.83
2022-12-31T00:35:09.171Z,997.84
2022-12-31T00:36:09.310Z,997.82
2022-12-31T00:37:09.464Z,997.78
2022-12-31T00:38:09.612Z,997.74
2022-12-31T00:39:09.786Z,997.78
2022-12-31T00:40:09.877Z,997.77
2022-12-31T00:41:11.461Z,997.83
2022-12-31T00:42:10.172Z,997.82
2022-12-31T00:43:10.270Z,997.72
2022-12-31T00:44:10.411Z,997.83
2022-12-31T00:45:10.561Z,997.83
2022-12-31T00:46:10.766Z,997.83
2022-12-31T00:47:10.857Z,997.81
2022-12-31T00:48:10.969Z,997.77
2022-12-31T00:49:11.109Z,997.80
2022-12-31T00:50:11.253Z,997.77
2022-12-31T00:51:11.410Z,997.79
2022-12-31T00:52:11.550Z,997.80
2022-12-31T00:53:11.723Z,997.76
2022-12-31T00:54:11.915Z,997.78
2022-12-31T00:55:11.970Z,997.82
2022-12-31T00:56:12.129Z,997.85
2022-12-31T00:57:12.219Z,997.73
2022-12-31T00:58:12.389Z,997.64
2022-12-31T00:59:12.481Z,997.55
2022-12-31T01:00:12.583Z,997.60
2022-12-31T01:01:12.872Z,997.52
2022-12-31T01:02:13.046Z,997.58
2022-12-31T01:03:12.992Z,997.51
2022-12-31T01:04:13.812Z,997.55
2022-12-31T01:05:13.960Z,997.62
2022-12-31T01:06:13.293Z,997.52
2022-12-31T01:07:13.440Z,997.44
2022-12-31T01:08:13.528Z,997.46
2022-12-31T01:09:13.685Z,997.49
2022-12-31T01:10:13.838Z,997.45
2022-12-31T01:11:14.013Z,997.48
2022-12-31T01:12:14.151Z,997.47
2022-12-31T01:13:14.301Z,997.52
2022-12-31T01:14:14.430Z,997.39
2022-12-31T01:15:14.567Z,997.48
2022-12-31T01:16:14.753Z,997.46
2022-12-31T01:17:14.867Z,997.42
2022-12-31T01:18:14.988Z,997.40
2022-12-31T01:19:15.151Z,997.46
2022-12-31T01:20:15.287Z,997.45
2022-12-31T01:21:15.425Z,997.49
2022-12-31T01:22:15.585Z,997.49
2022-12-31T01:23:15.718Z,997.43
2022-12-31T01:24:15.879Z,997.45
2022-12-31T01:25:16.008Z,997.31
2022-12-31T01:26:16.158Z,997.51
2022-12-31T01:27:16.349Z,997.59
2022-12-31T01:28:16.408Z,997.54
2022-12-31T01:29:16.535Z,997.53
2022-12-31T01:30:16.666Z,997.46
2022-12-31T01:31:16.837Z,997.54
2022-12-31T01:32:16.908Z,997.62
2022-12-31T01:33:17.039Z,997.51
2022-12-31T01:34:17.898Z,997.60
2022-12-31T01:35:17.295Z,997.50
2022-12-31T01:36:21.855Z,997.46
2022-12-31T01:37:18.569Z,997.43
2022-12-31T01:38:17.693Z,997.40
2022-12-31T01:39:17.819Z,997.46
2022-12-31T01:40:17.975Z,997.45
2022-12-31T01:41:18.864Z,997.49
2022-12-31T01:42:18.226Z,997.44
2022-12-31T01:43:18.376Z,997.39
2022-12-31T01:44:18.474Z,997.39
2022-12-31T01:45:18.595Z,997.29
2022-12-31T01:46:18.756Z,997.30
2022-12-31T01:47:18.883Z,997.35
2022-12-31T01:48:19.017Z,997.28
2022-12-31T01:49:19.157Z,997.32
2022-12-31T01:50:19.317Z,997.30
2022-12-31T01:51:19.412Z,997.36
2022-12-31T01:52:19.559Z,997.52
2022-12-31T01:53:19.722Z,997.51
2022-12-31T01:54:19.875Z,997.44
2022-12-31T01:55:20.020Z,997.39
2022-12-31T01:56:20.084Z,997.43
2022-12-31T01:57:20.258Z,997.37
2022-12-31T01:58:20.318Z,997.38
2022-12-31T01:59:20.472Z,997.37
2022-12-31T02:00:20.596Z,997.32
2022-12-31T02:01:20.806Z,997.31
2022-12-31T02:02:20.995Z,997.26
2022-12-31T02:03:21.030Z,997.26
2022-12-31T02:04:21.109Z,997.24
2022-12-31T02:05:21.254Z,997.26
2022-12-31T02:06:21.410Z,997.29
2022-12-31T02:07:21.547Z,997.24
2022-12-31T02:08:21.716Z,997.29
2022-12-31T02:09:22.764Z,997.24
2022-12-31T02:10:21.962Z,997.17
2022-12-31T02:11:22.110Z,997.17
2022-12-31T02:12:22.202Z,997.13
2022-12-31T02:13:22.351Z,997.08
2022-12-31T02:14:22.503Z,997.07
2022-12-31T02:15:22.652Z,997.10
2022-12-31T02:16:22.800Z,997.13
2022-12-31T02:17:22.908Z,997.11
2022-12-31T02:18:22.982Z,997.08
2022-12-31T02:19:23.131Z,997.05
2022-12-31T02:20:23.245Z,997.14
2022-12-31T02:21:23.362Z,997.10
2022-12-31T02:22:23.490Z,997.22
2022-12-31T02:23:23.658Z,997.17
2022-12-31T02:24:23.774Z,997.17
2022-12-31T02:25:23.924Z,997.11
2022-12-31T02:26:24.069Z,997.11
2022-12-31T02:27:24.208Z,997.17
2022-12-31T02:28:24.352Z,997.14
2022-12-31T02:29:24.579Z,997.00
2022-12-31T02:30:24.670Z,997.22
2022-12-31T02:31:24.838Z,997.14
2022-12-31T02:32:24.913Z,997.15
2022-12-31T02:33:25.988Z,997.16
2022-12-31T02:34:25.306Z,997.11
2022-12-31T02:35:25.335Z,997.08
2022-12-31T02:36:25.467Z,996.99
2022-12-31T02:37:25.598Z,997.03
2022-12-31T02:38:25.743Z,997.00
2022-12-31T02:39:25.930Z,996.97
2022-12-31T02:40:26.014Z,997.07
2022-12-31T02:41:26.106Z,997.05
2022-12-31T02:42:26.245Z,997.05
2022-12-31T02:43:26.385Z,997.08
2022-12-31T02:44:26.526Z,997.00
2022-12-31T02:45:26.673Z,997.03
2022-12-31T02:46:26.835Z,997.11
2022-12-31T02:47:26.895Z,997.02
2022-12-31T02:48:27.051Z,996.92
2022-12-31T02:49:27.155Z,996.95
2022-12-31T02:50:27.301Z,996.91
2022-12-31T02:51:27.412Z,996.86
2022-12-31T02:52:27.543Z,996.79
2022-12-31T02:53:27.681Z,996.74
2022-12-31T02:54:27.801Z,996.75
2022-12-31T02:55:27.945Z,996.78
2022-12-31T02:56:28.051Z,996.74
2022-12-31T02:57:28.214Z,996.81
2022-12-31T02:58:28.362Z,996.76
2022-12-31T02:59:28.455Z,996.69
2022-12-31T03:00:28.685Z,996.79
2022-12-31T03:01:28.887Z,996.68
2022-12-31T03:02:28.930Z,996.89
2022-12-31T03:03:28.995Z,996.79
2022-12-31T03:04:29.097Z,996.82
2022-12-31T03:05:29.253Z,996.83
2022-12-31T03:06:29.392Z,996.76
2022-12-31T03:07:29.532Z,996.73
2022-12-31T03:08:29.691Z,996.66
2022-12-31T03:09:29.838Z,996.76
2022-12-31T03:10:29.958Z,996.95
2022-12-31T03:11:30.130Z,997.18
2022-12-31T03:12:30.201Z,997.36
2022-12-31T03:13:30.361Z,997.55
2022-12-31T03:14:30.450Z,997.78
2022-12-31T03:15:30.577Z,997.91
2022-12-31T03:16:30.801Z,997.91
2022-12-31T03:17:30.843Z,997.97
2022-12-31T03:18:30.982Z,997.99
2022-12-31T03:19:31.112Z,997.85
2022-12-31T03:20:31.243Z,997.78
2022-12-31T03:21:31.505Z,997.87
2022-12-31T03:22:31.507Z,997.86
2022-12-31T03:23:31.603Z,997.79
2022-12-31T03:24:31.721Z,997.87
2022-12-31T03:25:31.864Z,997.83
2022-12-31T03:26:32.011Z,997.87
2022-12-31T03:27:32.202Z,997.91
2022-12-31T03:28:32.280Z,997.89
2022-12-31T03:29:32.422Z,997.91
2022-12-31T03:30:32.615Z,997.96
2022-12-31T03:31:32.807Z,998.01
2022-12-31T03:32:32.922Z,998.04
2022-12-31T03:33:33.008Z,998.03
2022-12-31T03:34:33.103Z,998.02
2022-12-31T03:35:33.247Z,997.98
2022-12-31T03:36:33.379Z,997.91
2022-12-31T03:37:33.524Z,997.96
2022-12-31T03:38:33.634Z,997.89
2022-12-31T03:39:33.842Z,997.90
2022-12-31T03:40:33.900Z,997.88
2022-12-31T03:41:34.048Z,997.90
2022-12-31T03:42:34.179Z,997.85
2022-12-31T03:43:34.304Z,997.79
2022-12-31T03:44:34.400Z,997.85
2022-12-31T03:45:34.557Z,997.79
2022-12-31T03:46:34.632Z,997.86
2022-12-31T03:47:34.805Z,997.83
2022-12-31T03:48:34.922Z,997.82
2022-12-31T03:49:35.105Z,997.80
2022-12-31T03:50:35.193Z,997.76
2022-12-31T03:51:35.353Z,997.75
2022-12-31T03:52:35.538Z,997.78
2022-12-31T03:53:35.667Z,997.86
2022-12-31T03:54:35.814Z,997.88
2022-12-31T03:55:35.954Z,997.90
2022-12-31T03:56:36.082Z,997.85
2022-12-31T03:57:36.229Z,997.82
2022-12-31T03:58:36.373Z,997.73
2022-12-31T03:59:36.490Z,997.78
2022-12-31T04:00:36.637Z,997.85
2022-12-31T04:01:36.875Z,997.81
2022-12-31T04:02:37.011Z,997.80
2022-12-31T04:03:37.022Z,997.78
2022-12-31T04:04:37.130Z,997.77
2022-12-31T04:05:37.221Z,997.76
2022-12-31T04:06:37.382Z,997.75
2022-12-31T04:07:37.475Z,997.76
2022-12-31T04:08:37.588Z,997.75
2022-12-31T04:09:37.698Z,997.79
2022-12-31T04:10:37.812Z,997.80
2022-12-31T04:11:37.984Z,997.82
2022-12-31T04:12:38.093Z,997.74
2022-12-31T04:13:38.243Z,997.79
2022-12-31T04:14:38.379Z,997.70
2022-12-31T04:15:38.519Z,997.75
2022-12-31T04:16:38.711Z,997.73
2022-12-31T04:17:38.811Z,997.66
2022-12-31T04:18:38.935Z,997.66
2022-12-31T04:19:39.067Z,997.58
2022-12-31T04:20:39.199Z,997.57
2022-12-31T04:21:39.348Z,997.62
2022-12-31T04:22:39.517Z,997.59
2022-12-31T04:23:39.680Z,997.64
2022-12-31T04:24:39.800Z,997.60
2022-12-31T04:25:39.969Z,997.65
2022-12-31T04:26:40.102Z,997.60
2022-12-31T04:27:40.278Z,997.55
2022-12-31T04:28:41.831Z,997.61
2022-12-31T04:29:40.487Z,997.54
2022-12-31T04:30:40.588Z,997.64
2022-12-31T04:31:40.738Z,997.64
2022-12-31T04:32:40.810Z,997.53
2022-12-31T04:33:41.163Z,997.57
2022-12-31T04:34:41.133Z,997.48
2022-12-31T04:35:41.290Z,997.50
2022-12-31T04:36:41.665Z,997.49
2022-12-31T04:37:41.567Z,997.51
2022-12-31T04:38:41.662Z,997.49
2022-12-31T04:39:41.788Z,997.42
2022-12-31T04:40:41.917Z,997.39
2022-12-31T04:41:42.080Z,997.36
2022-12-31T04:42:42.221Z,997.44
2022-12-31T04:43:42.362Z,997.39
2022-12-31T04:44:42.452Z,997.40
2022-12-31T04:45:42.655Z,997.39
2022-12-31T04:46:42.811Z,997.37
2022-12-31T04:47:42.885Z,997.35
2022-12-31T04:48:43.052Z,997.39
2022-12-31T04:49:43.150Z,997.36
2022-12-31T04:50:43.281Z,997.40
2022-12-31T04:51:44.155Z,997.38
2022-12-31T04:52:43.529Z,997.40
2022-12-31T04:53:43.716Z,997.34
2022-12-31T04:54:43.802Z,997.35
2022-12-31T04:55:43.940Z,997.41
2022-12-31T04:56:44.074Z,997.33
2022-12-31T04:57:44.164Z,997.34
2022-12-31T04:58:44.313Z,997.40
2022-12-31T04:59:44.413Z,997.32
2022-12-31T05:00:44.542Z,997.31
2022-12-31T05:01:44.757Z,997.28
2022-12-31T05:02:44.988Z,997.23
2022-12-31T05:03:45.018Z,997.33
2022-12-31T05:04:45.090Z,997.26
2022-12-31T05:05:45.224Z,997.31
2022-12-31T05:06:45.368Z,997.27
2022-12-31T05:07:45.498Z,997.34
2022-12-31T05:08:45.577Z,997.27
2022-12-31T05:09:45.721Z,997.24
2022-12-31T05:10:45.885Z,997.25
2022-12-31T05:11:46.031Z,997.09
2022-12-31T05:12:46.170Z,997.18
2022-12-31T05:13:46.261Z,997.17
2022-12-31T05:14:46.412Z,997.16
2022-12-31T05:15:46.569Z,997.15
2022-12-31T05:16:46.672Z,997.25
2022-12-31T05:17:46.834Z,997.02
2022-12-31T05:18:46.969Z,997.09
2022-12-31T05:19:47.091Z,997.01
2022-12-31T05:20:47.223Z,997.07
2022-12-31T05:21:47.351Z,996.90
2022-12-31T05:22:47.511Z,996.99
2022-12-31T05:23:47.650Z,997.29
2022-12-31T05:24:47.778Z,997.04
2022-12-31T05:25:47.911Z,996.99
2022-12-31T05:26:48.033Z,997.06
2022-12-31T05:27:48.163Z,997.09
2022-12-31T05:28:48.319Z,997.07
2022-12-31T05:29:48.466Z,996.93
2022-12-31T05:30:48.648Z,997.09
2022-12-31T05:31:48.707Z,997.11
2022-12-31T05:32:48.970Z,996.96
2022-12-31T05:33:49.038Z,996.82
2022-12-31T05:34:49.128Z,996.93
2022-12-31T05:35:49.261Z,997.01
2022-12-31T05:36:49.401Z,997.00
2022-12-31T05:37:49.529Z,996.96
2022-12-31T05:38:49.708Z,997.07
2022-12-31T05:39:49.768Z,997.03
2022-12-31T05:40:49.888Z,996.92
2022-12-31T05:41:50.028Z,996.90
2022-12-31T05:42:50.163Z,996.97
2022-12-31T05:43:50.317Z,997.12
2022-12-31T05:44:50.495Z,997.17
2022-12-31T05:45:50.681Z,997.07
2022-12-31T05:46:50.790Z,997.06
2022-12-31T05:47:50.857Z,997.28
2022-12-31T05:48:51.038Z,997.09
2022-12-31T05:49:51.099Z,997.11
2022-12-31T05:50:51.237Z,997.14
2022-12-31T05:51:51.376Z,997.03
2022-12-31T05:52:51.528Z,996.87
2022-12-31T05:53:51.698Z,997.12
2022-12-31T05:54:51.840Z,997.06
2022-12-31T05:55:51.968Z,997.08
2022-12-31T05:56:52.111Z,997.10
2022-12-31T05:57:52.228Z,997.11
2022-12-31T05:58:52.378Z,997.17
2022-12-31T05:59:52.482Z,997.12
2022-12-31T06:00:52.633Z,997.08
2022-12-31T06:01:52.779Z,997.15
2022-12-31T06:02:52.993Z,997.15
2022-12-31T06:03:53.042Z,996.96
2022-12-31T06:04:53.484Z,997.18
2022-12-31T06:05:53.299Z,997.21
2022-12-31T06:06:53.442Z,997.38
2022-12-31T06:07:53.572Z,997.10
2022-12-31T06:08:53.739Z,997.26
2022-12-31T06:09:53.866Z,997.44
2022-12-31T06:10:54.010Z,997.34
2022-12-31T06:11:54.160Z,997.57
2022-12-31T06:12:54.300Z,997.61
2022-12-31T06:13:54.498Z,997.47
2022-12-31T06:14:54.548Z,997.57
2022-12-31T06:15:54.765Z,997.51
2022-12-31T06:16:54.842Z,997.71
2022-12-31T06:17:55.000Z,997.59
2022-12-31T06:18:55.098Z,997.74
2022-12-31T06:19:55.969Z,997.57
2022-12-31T06:20:55.436Z,997.88
2022-12-31T06:21:55.569Z,997.75
2022-12-31T06:22:55.667Z,998.07
2022-12-31T06:23:55.803Z,997.77
2022-12-31T06:24:56.012Z,997.77
2022-12-31T06:25:56.058Z,997.80
2022-12-31T06:26:56.177Z,997.78
2022-12-31T06:27:56.370Z,997.81
2022-12-31T06:28:56.463Z,997.97
2022-12-31T06:29:56.541Z,997.66
2022-12-31T06:30:56.795Z,997.79
2022-12-31T06:31:56.816Z,997.79
2022-12-31T06:32:56.956Z,997.87
2022-12-31T06:33:57.051Z,997.80
2022-12-31T06:34:57.230Z,997.87
2022-12-31T06:35:57.367Z,997.96
2022-12-31T06:36:57.436Z,998.05
2022-12-31T06:37:57.583Z,997.94
2022-12-31T06:38:57.746Z,998.09
2022-12-31T06:39:57.849Z,998.03
2022-12-31T06:40:57.984Z,998.04
2022-12-31T06:41:58.122Z,998.15
2022-12-31T06:43:00.439Z,998.04
2022-12-31T06:43:58.414Z,998.19
2022-12-31T06:44:58.580Z,998.20
2022-12-31T06:45:58.707Z,998.08
2022-12-31T06:46:58.850Z,998.31
2022-12-31T06:47:58.978Z,998.15
2022-12-31T06:48:59.146Z,998.13
2022-12-31T06:49:59.287Z,998.07
2022-12-31T06:50:59.455Z,998.20
2022-12-31T06:51:59.610Z,998.09
2022-12-31T06:52:59.747Z,998.15
2022-12-31T06:53:59.891Z,998.19
2022-12-31T06:55:00.052Z,998.11
2022-12-31T06:56:00.195Z,998.32
2022-12-31T06:57:00.331Z,998.20
2022-12-31T06:58:00.497Z,998.09
2022-12-31T06:59:00.680Z,998.14
2022-12-31T07:00:00.802Z,998.19
2022-12-31T07:01:00.965Z,998.34
2022-12-31T07:02:01.236Z,998.18
2022-12-31T07:03:01.262Z,998.37
2022-12-31T07:04:01.348Z,998.11
2022-12-31T07:05:01.468Z,998.30
2022-12-31T07:06:01.562Z,998.22
2022-12-31T07:07:01.709Z,998.28
2022-12-31T07:08:01.840Z,998.15
2022-12-31T07:09:01.985Z,998.24
2022-12-31T07:10:02.101Z,998.34
2022-12-31T07:11:02.253Z,998.40
2022-12-31T07:12:02.308Z,998.35
2022-12-31T07:13:02.451Z,998.19
2022-12-31T07:14:02.591Z,998.31
2022-12-31T07:15:02.730Z,998.39
2022-12-31T07:16:02.885Z,998.38
2022-12-31T07:17:02.949Z,998.24
2022-12-31T07:18:03.026Z,998.25
2022-12-31T07:19:03.163Z,998.34
2022-12-31T07:20:03.311Z,998.43
2022-12-31T07:21:03.420Z,998.35
2022-12-31T07:22:03.569Z,998.36
2022-12-31T07:23:03.669Z,998.36
2022-12-31T07:24:03.827Z,998.50
2022-12-31T07:25:04.018Z,998.58
2022-12-31T07:26:04.098Z,998.49
2022-12-31T07:27:04.242Z,998.45
2022-12-31T07:28:04.347Z,998.55
2022-12-31T07:29:04.522Z,998.45
2022-12-31T07:30:04.800Z,998.54
2022-12-31T07:31:04.805Z,998.51
2022-12-31T07:32:04.902Z,998.52
2022-12-31T07:33:05.027Z,998.58
2022-12-31T07:34:05.112Z,998.44
2022-12-31T07:35:05.331Z,998.47
2022-12-31T07:36:05.455Z,998.35
2022-12-31T07:37:05.579Z,998.48
2022-12-31T07:38:05.777Z,998.41
2022-12-31T07:39:05.882Z,998.45
2022-12-31T07:40:06.083Z,998.42
2022-12-31T07:41:09.696Z,998.42
2022-12-31T07:42:06.289Z,998.49
2022-12-31T07:43:06.603Z,998.21
2022-12-31T07:44:06.655Z,998.35
2022-12-31T07:45:06.784Z,998.50
2022-12-31T07:46:06.963Z,998.34
2022-12-31T07:47:07.095Z,998.31
2022-12-31T07:48:07.177Z,998.38
2022-12-31T07:49:07.315Z,998.32
2022-12-31T07:50:07.403Z,998.29
2022-12-31T07:51:07.591Z,998.36
2022-12-31T07:52:07.729Z,998.47
2022-12-31T07:53:07.826Z,998.60
2022-12-31T07:54:13.621Z,998.49
2022-12-31T07:55:09.058Z,998.54
2022-12-31T07:56:08.126Z,998.64
2022-12-31T07:57:08.346Z,998.48
2022-12-31T07:58:08.446Z,998.53
2022-12-31T07:59:08.587Z,998.51
2022-12-31T08:00:08.656Z,998.51
2022-12-31T08:01:08.920Z,998.48
2022-12-31T08:02:08.988Z,998.45
2022-12-31T08:03:09.020Z,998.53
2022-12-31T08:04:09.124Z,998.43
2022-12-31T08:05:09.240Z,998.54
2022-12-31T08:06:09.351Z,998.43
2022-12-31T08:07:09.505Z,998.67
2022-12-31T08:08:09.593Z,998.63
2022-12-31T08:09:09.718Z,998.70
2022-12-31T08:10:15.640Z,998.63
2022-12-31T08:11:10.976Z,998.67
2022-12-31T08:12:10.066Z,998.66
2022-12-31T08:13:10.185Z,998.63
2022-12-31T08:14:10.282Z,998.76
2022-12-31T08:15:10.474Z,998.79
2022-12-31T08:16:10.636Z,998.80
2022-12-31T08:17:10.690Z,998.71
2022-12-31T08:18:10.922Z,998.83
2022-12-31T08:19:10.977Z,998.64
2022-12-31T08:20:11.081Z,998.80
2022-12-31T08:21:11.248Z,998.83
2022-12-31T08:22:11.328Z,998.81
2022-12-31T08:23:11.412Z,998.84
2022-12-31T08:24:11.556Z,998.58
2022-12-31T08:25:11.673Z,999.01
2022-12-31T08:26:11.758Z,998.93
2022-12-31T08:27:11.951Z,998.67
2022-12-31T08:28:12.091Z,998.75
2022-12-31T08:29:12.256Z,998.64
2022-12-31T08:30:12.496Z,998.67
2022-12-31T08:31:12.523Z,998.74
2022-12-31T08:32:12.705Z,998.86
2022-12-31T08:33:12.735Z,998.98
2022-12-31T08:34:13.504Z,998.76
2022-12-31T08:35:13.189Z,998.88
2022-12-31T08:36:13.058Z,998.85
2022-12-31T08:37:13.289Z,998.79
2022-12-31T08:38:13.324Z,998.83
2022-12-31T08:39:13.479Z,998.89
2022-12-31T08:40:13.641Z,998.63
2022-12-31T08:41:13.701Z,998.87
2022-12-31T08:42:13.837Z,998.96
2022-12-31T08:43:13.997Z,999.31
2022-12-31T08:44:14.077Z,998.76
2022-12-31T08:45:14.198Z,998.91
2022-12-31T08:46:14.372Z,998.73
2022-12-31T08:47:14.484Z,998.76
2022-12-31T08:48:14.609Z,998.76
2022-12-31T08:49:15.675Z,998.82
2022-12-31T08:50:14.877Z,998.87
2022-12-31T08:51:14.924Z,998.79
2022-12-31T08:52:15.039Z,998.85
2022-12-31T08:53:15.366Z,998.83
2022-12-31T08:54:15.305Z,998.79
2022-12-31T08:55:15.437Z,998.82
2022-12-31T08:56:15.519Z,998.74
2022-12-31T08:57:15.701Z,998.96
2022-12-31T08:58:15.796Z,998.93
2022-12-31T08:59:15.913Z,998.93
2022-12-31T09:00:16.015Z,998.87
2022-12-31T09:01:16.896Z,999.01
2022-12-31T09:02:16.297Z,998.85
2022-12-31T09:03:16.375Z,998.87
2022-12-31T09:04:16.550Z,998.73
2022-12-31T09:05:16.600Z,998.99
2022-12-31T09:06:16.704Z,998.90
2022-12-31T09:07:16.849Z,999.00
2022-12-31T09:08:16.954Z,999.03
2022-12-31T09:09:17.107Z,998.91
2022-12-31T09:10:17.217Z,998.83
2022-12-31T09:11:22.839Z,998.86
2022-12-31T09:12:18.475Z,998.97
2022-12-31T09:13:17.644Z,998.82
2022-12-31T09:14:17.717Z,999.23
2022-12-31T09:15:17.859Z,998.99
2022-12-31T09:16:18.056Z,999.06
2022-12-31T09:17:18.124Z,999.26
2022-12-31T09:18:18.267Z,999.04
2022-12-31T09:19:18.424Z,999.04
2022-12-31T09:20:18.520Z,999.17
2022-12-31T09:21:18.683Z,999.09
2022-12-31T09:22:18.784Z,999.24
2022-12-31T09:23:18.964Z,999.28
2022-12-31T09:24:19.104Z,999.33
2022-12-31T09:25:19.223Z,999.24
2022-12-31T09:26:19.354Z,999.17
2022-12-31T09:27:27.014Z,999.39
2022-12-31T09:28:20.572Z,999.29
2022-12-31T09:29:19.749Z,999.31
2022-12-31T09:30:19.855Z,999.27
2022-12-31T09:31:19.991Z,999.58
2022-12-31T09:32:20.052Z,999.37
2022-12-31T09:33:20.187Z,999.44
2022-12-31T09:34:20.347Z,999.29
2022-12-31T09:35:20.471Z,999.68
2022-12-31T09:36:20.573Z,999.77
2022-12-31T09:37:21.136Z,999.71
2022-12-31T09:38:21.122Z,999.76
2022-12-31T09:39:21.118Z,999.60
2022-12-31T09:40:21.126Z,999.85
2022-12-31T09:41:21.201Z,999.89
2022-12-31T09:42:21.354Z,1000.03
2022-12-31T09:43:21.449Z,999.88
2022-12-31T09:44:21.595Z,1000.03
2022-12-31T09:45:21.747Z,999.88
2022-12-31T09:46:21.886Z,999.96
2022-12-31T09:47:21.958Z,1000.10
2022-12-31T09:48:22.120Z,1000.04
2022-12-31T09:49:22.231Z,1000.03
2022-12-31T09:50:22.411Z,1000.29
2022-12-31T09:51:25.429Z,1000.10
2022-12-31T09:52:22.659Z,1000.42
2022-12-31T09:53:22.784Z,1000.20
2022-12-31T09:54:22.909Z,1000.27
2022-12-31T09:55:23.055Z,1000.38
2022-12-31T09:56:23.178Z,1000.40
2022-12-31T09:57:23.255Z,1000.25
2022-12-31T09:58:23.395Z,1000.40
2022-12-31T09:59:23.575Z,1000.69
2022-12-31T10:00:23.685Z,1000.43
2022-12-31T10:01:23.841Z,1000.51
2022-12-31T10:02:24.165Z,1000.49
2022-12-31T10:03:24.053Z,1000.44
2022-12-31T10:04:24.167Z,1000.46
2022-12-31T10:05:24.290Z,1000.60
2022-12-31T10:06:24.407Z,1000.53
2022-12-31T10:07:24.500Z,1000.88
2022-12-31T10:08:24.616Z,1000.76
2022-12-31T10:09:24.709Z,1000.79
2022-12-31T10:10:24.867Z,1000.57
2022-12-31T10:11:25.027Z,1000.58
2022-12-31T10:12:25.124Z,1000.63
2022-12-31T10:13:25.264Z,1000.66
2022-12-31T10:14:25.411Z,1000.69
2022-12-31T10:15:25.560Z,1000.74
2022-12-31T10:16:25.731Z,1000.72
2022-12-31T10:17:25.883Z,1000.66
2022-12-31T10:18:25.978Z,1000.68
2022-12-31T10:19:26.108Z,1000.54
2022-12-31T10:20:26.189Z,1000.62
2022-12-31T10:21:26.335Z,1000.71
2022-12-31T10:22:26.457Z,1000.62
2022-12-31T10:23:26.570Z,1000.54
2022-12-31T10:24:26.674Z,1000.50
2022-12-31T10:25:38.420Z,1000.73
2022-12-31T10:26:27.917Z,1000.69
2022-12-31T10:27:27.011Z,1000.61
2022-12-31T10:28:27.189Z,1000.56
2022-12-31T10:29:27.267Z,1000.63
2022-12-31T10:30:27.408Z,1000.78
2022-12-31T10:31:27.513Z,1000.70
2022-12-31T10:32:31.340Z,1000.63
2022-12-31T10:33:27.753Z,1000.83
2022-12-31T10:34:27.927Z,1000.41
2022-12-31T10:35:28.009Z,1000.74
2022-12-31T10:36:28.145Z,1000.66
2022-12-31T10:37:29.008Z,1000.70
2022-12-31T10:38:28.445Z,1000.53
2022-12-31T10:39:28.526Z,1000.75
2022-12-31T10:40:28.668Z,1000.62
2022-12-31T10:41:28.775Z,1000.75
2022-12-31T10:42:28.879Z,1000.66
2022-12-31T10:43:29.026Z,1000.68
2022-12-31T10:44:30.656Z,1000.63
2022-12-31T10:45:29.244Z,1000.59
2022-12-31T10:46:29.495Z,1000.64
2022-12-31T10:47:30.100Z,1000.47
2022-12-31T10:48:29.707Z,1000.52
2022-12-31T10:49:29.798Z,1000.66
2022-12-31T10:50:29.889Z,1000.65
2022-12-31T10:51:29.986Z,1000.60
2022-12-31T10:52:30.172Z,1000.55
2022-12-31T10:53:30.969Z,1000.69
2022-12-31T10:54:30.400Z,1000.65
2022-12-31T10:55:30.463Z,1000.78
2022-12-31T10:56:30.585Z,1000.73
2022-12-31T10:57:30.746Z,1000.76
2022-12-31T10:58:30.875Z,1000.73
2022-12-31T10:59:30.955Z,1000.76
2022-12-31T11:00:31.098Z,1000.71
2022-12-31T11:01:31.364Z,1000.61
2022-12-31T11:02:31.559Z,1000.73
2022-12-31T11:03:31.538Z,1000.68
2022-12-31T11:04:31.647Z,1000.69
2022-12-31T11:05:31.872Z,1000.65
2022-12-31T11:06:31.855Z,1000.52
2022-12-31T11:07:32.065Z,1000.62
2022-12-31T11:08:32.075Z,1000.66
2022-12-31T11:09:34.680Z,1000.68
2022-12-31T11:10:32.375Z,1000.56
2022-12-31T11:11:32.454Z,1000.59
2022-12-31T11:12:32.612Z,1000.72
2022-12-31T11:13:32.719Z,1000.61
2022-12-31T11:14:32.886Z,1000.71
2022-12-31T11:15:33.078Z,1000.67
2022-12-31T11:16:33.228Z,1000.54
2022-12-31T11:17:33.274Z,1000.43
2022-12-31T11:18:33.416Z,1000.39
2022-12-31T11:19:33.526Z,1000.50
2022-12-31T11:20:33.671Z,1000.48
2022-12-31T11:21:37.872Z,1000.53
2022-12-31T11:22:34.891Z,1000.56
2022-12-31T11:23:34.004Z,1000.47
2022-12-31T11:24:34.150Z,1000.51
2022-12-31T11:25:34.282Z,1000.47
2022-12-31T11:26:34.445Z,1000.46
2022-12-31T11:27:34.526Z,1000.40
2022-12-31T11:28:34.675Z,1000.43
2022-12-31T11:29:34.803Z,1000.34
2022-12-31T11:30:34.949Z,1000.55
2022-12-31T11:31:35.125Z,1000.44
2022-12-31T11:32:35.223Z,1000.46
2022-12-31T11:33:35.364Z,1000.55
2022-12-31T11:34:35.466Z,1000.55
2022-12-31T11:35:35.583Z,1000.58
2022-12-31T11:36:35.663Z,1000.53
2022-12-31T11:37:35.916Z,1000.46
2022-12-31T11:38:35.974Z,1000.77
2022-12-31T11:39:36.072Z,1000.45
2022-12-31T11:40:36.183Z,1000.66
2022-12-31T11:41:36.285Z,1000.74
2022-12-31T11:42:36.448Z,1000.54
2022-12-31T11:43:36.538Z,1000.84
2022-12-31T11:44:36.674Z,1000.62
2022-12-31T11:45:36.832Z,1000.54
2022-12-31T11:46:37.052Z,1000.56
2022-12-31T11:47:49.710Z,1000.52
2022-12-31T11:48:38.187Z,1000.64
2022-12-31T11:49:37.277Z,1000.59
2022-12-31T11:50:37.428Z,1000.58
2022-12-31T11:51:37.526Z,1000.65
2022-12-31T11:52:37.673Z,1000.57
2022-12-31T11:53:37.825Z,1000.66
2022-12-31T11:54:38.056Z,1000.71
2022-12-31T11:55:38.135Z,1000.53
2022-12-31T11:56:38.255Z,1000.48
2022-12-31T11:57:38.409Z,1000.55
2022-12-31T11:58:38.485Z,1000.49
2022-12-31T11:59:38.657Z,1000.59
2022-12-31T12:00:38.734Z,1000.54
2022-12-31T12:01:38.950Z,1000.55
2022-12-31T12:02:39.028Z,1000.57
2022-12-31T12:03:39.151Z,1000.55
2022-12-31T12:04:39.253Z,1000.85
2022-12-31T12:05:39.321Z,1000.53
2022-12-31T12:06:39.528Z,1000.67
2022-12-31T12:07:39.648Z,1000.47
2022-12-31T12:09:39.550Z,1000.61
2022-12-31T12:10:40.400Z,1000.54
2022-12-31T12:11:39.771Z,1000.56
2022-12-31T12:12:39.902Z,1000.60
2022-12-31T12:13:40.053Z,1000.54
2022-12-31T12:14:40.211Z,1000.46
2022-12-31T12:15:40.429Z,1000.43
2022-12-31T12:16:40.472Z,1000.52
2022-12-31T12:17:40.572Z,1000.55
2022-12-31T12:18:40.743Z,1000.57
2022-12-31T12:19:40.970Z,1000.50
2022-12-31T12:20:40.940Z,1000.58
2022-12-31T12:21:41.088Z,1000.51
2022-12-31T12:22:45.124Z,1000.47
2022-12-31T12:23:42.319Z,1000.60
2022-12-31T12:24:41.468Z,1000.48
2022-12-31T12:25:41.609Z,1000.55